Nearby METAR Reports

CWGD - Goderich (autob), Ontario, Canada
Distance from station: SW 47km
Updated: 11/28/2020 5:00pm

 Wind from SSW
Wind: SSW 26 km/h, Gust: 37 km/h
Temperature: 5°C
Wind Chill: 1°C
Dew Point: -2°C
Humidity: 61%
2020/11/28 22:00 CWGD 282200Z AUTO 20014G20KT 05/M02 RMK AO1 PK WND 19023/2140 SLP173 T00511015 57015
CWLS - Mount Forest(Mar, Ontario, Canada
Distance from station: ESE 53km
Updated: 11/28/2020 5:00pm

 Wind from SSW
Wind: SSW 15 km/h
Temperature: 2°C
Wind Chill: -2°C
Dew Point: -5°C
Humidity: 60%
2020/11/28 22:00 CWLS 282200Z AUTO 21008KT 02/M05 RMK AO1 SLP168 T00191046 56006
 
CYVV - Wiarton Air, Ontario, Canada
Distance from station: NNE 75km
Updated: 11/28/2020 5:00pm
Mostly cloudy
Mostly cloudy
 Wind from SW
Wind: SW 24 km/h, Gust: 37 km/h
Temperature: 4°C
Wind Chill: -1°C
Dew Point: -2°C
Humidity: 65%
Barometer: 1013.5 hPa
Clouds: Mostly cloudy
Visibility: 24 km
Cloud details: Few Clouds 1219 m
Mostly cloudy 7620 m
2020/11/28 22:00 CYVV 282200Z 22013G20KT 15SM FEW040 BKN250 04/M02 A2993 RMK SC2CI5 SLP143
CZEL - Elora Rcs, Ontario, Canada
Distance from station: ESE 93km
Updated: 11/28/2020 5:00pm

 Wind from SW
Wind: SW 17 km/h
Temperature: 2°C
Wind Chill: -2°C
Dew Point: -3°C
Humidity: 70%
2020/11/28 22:00 CZEL 282200Z AUTO 23009KT 02/M03 RMK AO1 PK WND 25018/2107 SLP177 T00171034 56006
 
CWCO - Collingwood (aut, Ontario, Canada
Distance from station: ENE 104km
Updated: 11/28/2020 5:00pm

 Wind from SSW
Wind: SSW 9 km/h
Temperature: 6°C
Wind Chill: 4°C
Dew Point: -4°C
Humidity: 49%
2020/11/28 22:00 CWCO 282200Z AUTO 20005KT 06/M04 RMK AO1 SLP141 T00591039 56005
CYKF - Waterloo Well, Ontario, Canada
Distance from station: SE 107km
Updated: 11/28/2020 5:00pm
Clear
Clear
 Wind from SW
Wind: SW 17 km/h
Temperature: 3°C
Wind Chill: -1°C
Dew Point: -4°C
Humidity: 60%
Barometer: 1016.3 hPa
Clouds: Clear
Visibility: 14 km
2020/11/28 22:00 CYKF 282200Z AUTO 22009KT 9SM CLR 03/M04 A3001 RMK SLP173
 
KP58 - Port Hope, Michigan, USA
Distance from station: W 114km
Updated: 11/28/2020 4:57pm

 Wind from SW
Wind: SW 20 km/h, Gust: 33 km/h
Temperature: 6°C
Wind Chill: 2°C
Dew Point: -2°C
Humidity: 57%
Barometer: 1014.2 hPa
2020/11/28 21:57 KP58 282157Z AUTO 23011G18KT 06/M02 A2995 RMK AO1 SLP150 T00611022
CYBN - Borden, Ontario, Canada
Distance from station: E 118km
Updated: 11/28/2020 5:00pm
Clear
Clear
 Wind from SSW
Wind: SSW 15 km/h
Temperature: 4°C
Wind Chill: 1°C
Dew Point: -4°C
Humidity: 56%
Barometer: 1013.9 hPa
Clouds: Clear
Visibility: 14 km
2020/11/28 22:00 CYBN 282200Z AUTO 21008KT 9SM CLR 04/M04 A2994 RMK SLP146
 
CYXU - London Airport, Ontario, Canada
Distance from station: S 123km
Updated: 11/28/2020 5:00pm
Few Clouds
Few Clouds
 Wind from SW
Wind: SW 17 km/h
Temperature: 3°C
Wind Chill: -1°C
Dew Point: -3°C
Humidity: 65%
Barometer: 1017.3 hPa
Clouds: Few Clouds
Visibility: 24 km
Cloud details: Few Clouds 6401 m
2020/11/28 22:00 CYXU 282200Z 23009KT 15SM FEW210 03/M03 A3004 RMK CI1 SLP183
CXET - Egbert Cs, Ontario, Canada
Distance from station: E 128km
Updated: 11/28/2020 5:00pm

 Wind from SSW
Wind: SSW 13 km/h
Temperature: 4°C
Wind Chill: 1°C
Dew Point: -3°C
Humidity: 61%
2020/11/28 22:00 CXET 282200Z AUTO 21007KT 04/M03 RMK AO1 SLP155 T00351033 56009
 
CWMZ - Western Isl (map, Ontario, Canada
Distance from station: NE 129km
Updated: 11/28/2020 4:00pm
NOT Current

 Wind from WSW
Wind: WSW 56 km/h
Temperature: 6°C
Wind Chill: 0°C
Dew Point: -1°C
Humidity: 61%
2020/11/28 21:00 CWMZ 282100Z AUTO 24030KT 06/M01 RMK AO1 PK WND 24034/2056 SLP122 T00581008
KBAX - Bad Axe, Michigan, USA
Distance from station: WSW 133km
Updated: 11/28/2020 5:15pm
Clear
Clear
 
Temperature: 5°C
Dew Point: -3°C
Humidity: 57%
Barometer: 1014.9 hPa
Clouds: Clear
Visibility: 16 km
2020/11/28 22:15 KBAX 282215Z AUTO 10SM CLR 05/M03 A2997 RMK AO2 T00451026
 
CWWX - Cove Island (map, Ontario, Canada
Distance from station: NNW 137km
Updated: 11/28/2020 5:00pm

 Wind from W
Wind: W 20 km/h, Gust: 35 km/h
Temperature: 6°C
Wind Chill: 2°C
Dew Point: 2°C
Humidity: 76%
2020/11/28 22:00 CWWX 282200Z AUTO 26011G19KT 06/02 RMK AO1 PK WND 27024/2145 SLP117 T00590019 57005
CYZR - Sarnia Airport, Ontario, Canada
Distance from station: SSW 144km
Updated: 11/28/2020 5:00pm
Clear
Clear
 Wind from S
Wind: S 19 km/h
Temperature: 5°C
Wind Chill: 1°C
Dew Point: -2°C
Humidity: 61%
Barometer: 1016.6 hPa
Clouds: Clear
Visibility: 14 km
2020/11/28 22:00 CYZR 282200Z AUTO 19010KT 9SM CLR 05/M02 A3002 RMK SLP177
 
CXHM - Hamilton Rbg Cs, Ontario, Canada
Distance from station: SE 150km
Updated: 11/28/2020 5:00pm

 Wind from WSW
Wind: WSW 7 km/h
Temperature: 5°C
Wind Chill: 3°C
Dew Point: -3°C
Humidity: 57%
2020/11/28 22:00 CXHM 282200Z AUTO 25004KT 05/M03 RMK AO1 SLP175 T00491034 55005
CYYZ - Toronto/Pearson, Ontario, Canada
Distance from station: ESE 150km
Updated: 11/28/2020 5:00pm
Few Clouds
Few Clouds
 Wind from WSW
Wind: WSW 22 km/h, Gust: 31 km/h
Temperature: 5°C
Wind Chill: 1°C
Dew Point: -4°C
Humidity: 53%
Barometer: 1015.9 hPa
Clouds: Few Clouds
Visibility: 24 km
Cloud details: Few Clouds 3962 m
Few Clouds 6706 m
2020/11/28 22:00 CYYZ 282200Z 24012G17KT 15SM FEW130 FEW220 05/M04 A3000 RMK AC1CI1 CI TR SLP166
 
CXBI - Barrie-Oro, Ontario, Canada
Distance from station: ENE 151km
Updated: 11/28/2020 5:00pm

 Wind from SSW
Wind: SSW 9 km/h
Temperature: 3°C
Wind Chill: 0°C
Dew Point: -4°C
Humidity: 60%
2020/11/28 22:00 CXBI 282200Z AUTO 21005KT 03/M04 RMK AO1 SOG 06 6005 SLP148 T00251043
CXDI - Delhi Cs (aut), Ontario, Canada
Distance from station: SSE 154km
Updated: 11/28/2020 5:00pm

 Wind from SW
Wind: SW 7 km/h
Temperature: 4°C
Wind Chill: 2°C
Dew Point: -2°C
Humidity: 65%
2020/11/28 22:00 CXDI 282200Z AUTO 23004KT 04/M02 RMK AO1 SLP188 T00361017 57008
 
CWWB - Burlington Piers, Ontario, Canada
Distance from station: SE 157km
Updated: 11/28/2020 5:00pm

 Wind from SSW
Wind: SSW 17 km/h
Temperature: 6°C
Wind Chill: 3°C
Dew Point: -3°C
Humidity: 53%
2020/11/28 22:00 CWWB 282200Z AUTO 20009KT 06/M03 RMK AO1 PK WND 22017/2128 SLP173 T00611030 55005
CYHM - Hamilton Airport, Ontario, Canada
Distance from station: SE 157km
Updated: 11/28/2020 5:00pm
Few Clouds
Few Clouds
 Wind from SW
Wind: SW 19 km/h
Temperature: 3°C
Wind Chill: -2°C
Dew Point: -4°C
Humidity: 60%
Barometer: 1016.9 hPa
Clouds: Few Clouds
Visibility: 24 km
Cloud details: Few Clouds 7620 m
2020/11/28 22:00 CYHM 282200Z 22010KT 15SM FEW250 03/M04 A3003 RMK CI2 SLP179